createdAt,value
2023-05-18T03:00:56.870Z,1.80
2023-05-18T03:03:26.716Z,1.92
2023-05-18T03:05:55.084Z,2.50
2023-05-18T03:08:23.673Z,2.88
2023-05-18T03:10:51.544Z,3.05
2023-05-18T03:13:19.573Z,3.05
2023-05-18T03:15:49.269Z,3.72
2023-05-18T03:18:19.525Z,3.97
2023-05-18T03:20:47.607Z,3.88
2023-05-18T03:23:15.783Z,4.68
2023-05-18T03:25:44.797Z,4.30
2023-05-18T03:28:12.762Z,4.72
2023-05-18T03:30:41.156Z,5.07
2023-05-18T03:33:09.284Z,5.22
2023-05-18T03:35:39.617Z,3.72
2023-05-18T03:38:08.199Z,3.10
2023-05-18T03:40:38.059Z,3.03
2023-05-18T03:43:06.328Z,3.15
2023-05-18T03:45:34.692Z,3.13
2023-05-18T03:48:02.975Z,2.45
2023-05-18T03:50:31.505Z,2.70
2023-05-18T03:53:01.974Z,2.45
2023-05-18T03:55:30.074Z,2.22
2023-05-18T03:57:59.170Z,2.20
2023-05-18T04:00:27.249Z,2.35
2023-05-18T04:02:55.151Z,2.25
2023-05-18T04:05:25.997Z,2.38
2023-05-18T04:07:53.924Z,2.35
2023-05-18T04:10:23.285Z,2.10
2023-05-18T04:12:51.295Z,2.35
2023-05-18T04:15:19.216Z,2.38
2023-05-18T04:17:47.128Z,2.03
2023-05-18T04:20:15.395Z,1.90
2023-05-18T04:22:48.119Z,2.05
2023-05-18T04:25:16.726Z,2.15
2023-05-18T04:27:46.939Z,1.80
2023-05-18T04:30:18.770Z,2.00
2023-05-18T04:32:47.023Z,1.85
2023-05-18T04:35:15.302Z,1.95
2023-05-18T04:37:43.653Z,1.95
2023-05-18T04:40:17.870Z,2.00
2023-05-18T04:42:49.011Z,1.80
2023-05-18T04:45:26.086Z,1.88
2023-05-18T04:47:55.819Z,2.05
2023-05-18T04:50:24.531Z,1.77
2023-05-18T04:52:52.969Z,2.10
2023-05-18T04:55:28.396Z,2.10
2023-05-18T04:58:01.572Z,2.05
2023-05-18T05:00:30.802Z,2.00
2023-05-18T05:02:59.517Z,1.83
2023-05-18T05:05:27.904Z,1.90
2023-05-18T05:07:55.988Z,1.85
2023-05-18T05:10:23.991Z,1.80
2023-05-18T05:12:52.151Z,1.80
2023-05-18T05:15:21.801Z,1.90
2023-05-18T05:17:51.652Z,1.73
2023-05-18T05:20:20.006Z,2.10
2023-05-18T05:22:48.388Z,1.70
2023-05-18T05:25:22.289Z,1.98
2023-05-18T05:27:51.468Z,1.90
2023-05-18T05:30:23.375Z,1.80
2023-05-18T05:32:51.303Z,2.10
2023-05-18T05:35:19.441Z,1.80
2023-05-18T05:37:48.497Z,1.83
2023-05-18T05:40:17.306Z,2.05
2023-05-18T05:42:47.119Z,1.77
2023-05-18T05:45:15.045Z,1.75
2023-05-18T05:47:52.942Z,1.85
2023-05-18T05:50:23.334Z,2.05
2023-05-18T05:52:53.254Z,1.75
2023-05-18T05:55:22.630Z,1.85
2023-05-18T05:57:50.569Z,2.00
2023-05-18T06:00:19.475Z,1.90
2023-05-18T06:02:54.905Z,1.90
2023-05-18T06:05:32.807Z,1.75
2023-05-18T06:08:01.834Z,1.73
2023-05-18T06:10:31.088Z,1.80
2023-05-18T06:12:59.119Z,1.88
2023-05-18T06:15:35.037Z,1.95
2023-05-18T06:18:04.497Z,1.73
2023-05-18T06:20:32.534Z,1.55
2023-05-18T06:23:01.002Z,1.77
2023-05-18T06:25:47.878Z,1.70
2023-05-18T06:28:26.321Z,1.70
2023-05-18T06:31:18.820Z,1.75
2023-05-18T06:33:53.501Z,1.67
2023-05-18T06:36:21.472Z,1.60
2023-05-18T06:38:49.367Z,2.10
2023-05-18T06:41:17.305Z,1.90
2023-05-18T06:43:45.557Z,1.80
2023-05-18T06:46:39.998Z,1.77
2023-05-18T06:49:20.755Z,2.20
2023-05-18T06:51:48.698Z,1.80
2023-05-18T06:54:16.682Z,1.75
2023-05-18T06:56:46.299Z,1.60
2023-05-18T06:59:14.182Z,1.70
2023-05-18T07:01:42.423Z,1.77
2023-05-18T07:04:10.838Z,1.73
2023-05-18T07:06:40.262Z,1.90
2023-05-18T07:09:08.727Z,1.88
2023-05-18T07:11:36.624Z,1.58
2023-05-18T07:14:04.509Z,1.73
2023-05-18T07:16:32.530Z,1.80
2023-05-18T07:19:00.519Z,1.60
2023-05-18T07:21:28.532Z,1.88
2023-05-18T07:23:57.882Z,1.83
2023-05-18T07:26:26.097Z,1.80
2023-05-18T07:28:54.143Z,1.85
2023-05-18T07:31:22.628Z,1.95
2023-05-18T07:33:50.783Z,1.98
2023-05-18T07:36:18.698Z,1.75
2023-05-18T07:38:46.579Z,1.70
2023-05-18T07:41:15.844Z,1.80
2023-05-18T07:43:43.761Z,2.03
2023-05-18T07:46:11.742Z,1.90
2023-05-18T07:48:41.047Z,1.85
2023-05-18T07:51:09.317Z,2.00
2023-05-18T07:53:37.904Z,1.92
2023-05-18T07:56:06.974Z,1.80
2023-05-18T07:58:36.427Z,1.73
2023-05-18T08:01:04.472Z,1.80
2023-05-18T08:03:32.867Z,2.10
2023-05-18T08:06:01.076Z,1.90
2023-05-18T08:08:28.966Z,1.92
2023-05-18T08:10:57.567Z,1.98
2023-05-18T08:13:25.725Z,2.15
2023-05-18T08:16:09.902Z,2.20
2023-05-18T08:18:39.661Z,2.00
2023-05-18T08:21:09.440Z,1.92
2023-05-18T08:23:37.462Z,1.98
2023-05-18T08:26:05.758Z,2.17
2023-05-18T08:28:33.727Z,1.90
2023-05-18T08:31:02.945Z,2.10
2023-05-18T08:33:32.312Z,2.15
2023-05-18T08:36:00.366Z,1.83
2023-05-18T08:38:28.280Z,1.90
2023-05-18T08:41:03.595Z,1.80
2023-05-18T08:43:33.930Z,1.90
2023-05-18T08:46:08.483Z,1.88
2023-05-18T08:48:38.196Z,1.77
2023-05-18T08:51:09.529Z,2.00
2023-05-18T08:53:40.053Z,1.98
2023-05-18T08:56:09.764Z,2.20
2023-05-18T08:58:45.007Z,2.17
2023-05-18T09:01:15.974Z,1.88
2023-05-18T09:03:45.192Z,1.85
2023-05-18T09:06:13.194Z,2.08
2023-05-18T09:08:41.895Z,1.90
2023-05-18T09:11:09.921Z,1.70
2023-05-18T09:13:38.192Z,1.80
2023-05-18T09:16:07.844Z,1.85
2023-05-18T09:18:37.290Z,1.77
2023-05-18T09:21:05.314Z,1.90
2023-05-18T09:23:33.936Z,1.90
2023-05-18T09:26:02.218Z,1.75
2023-05-18T09:28:36.895Z,1.83
2023-05-18T09:31:05.299Z,1.83
2023-05-18T09:33:35.210Z,1.95
2023-05-18T09:36:06.610Z,1.88
2023-05-18T09:38:38.638Z,2.10
2023-05-18T09:41:12.503Z,2.00
2023-05-18T09:43:40.726Z,2.08
2023-05-18T09:46:09.524Z,2.30
2023-05-18T09:48:38.333Z,2.35
2023-05-18T09:51:07.864Z,2.15
2023-05-18T09:53:37.352Z,2.40
2023-05-18T09:56:07.215Z,2.25
2023-05-18T09:58:36.281Z,2.22
2023-05-18T10:01:04.510Z,2.25
2023-05-18T10:03:36.834Z,2.28
2023-05-18T10:06:09.217Z,2.25
2023-05-18T10:08:38.357Z,2.47
2023-05-18T10:11:07.114Z,2.15
2023-05-18T10:13:36.325Z,2.30
2023-05-18T10:16:05.696Z,2.13
2023-05-18T10:18:35.647Z,2.40
2023-05-18T10:21:05.775Z,2.53
2023-05-18T10:23:36.911Z,2.28
2023-05-18T10:26:07.844Z,2.40
2023-05-18T10:28:42.234Z,2.17
2023-05-18T10:31:10.680Z,2.45
2023-05-18T10:33:39.273Z,2.15
2023-05-18T10:36:08.441Z,2.40
2023-05-18T10:38:40.533Z,2.20
2023-05-18T10:41:10.766Z,2.35
2023-05-18T10:43:38.896Z,2.20
2023-05-18T10:46:08.514Z,2.47
2023-05-18T10:48:40.136Z,2.55
2023-05-18T10:51:09.016Z,2.50
2023-05-18T10:53:38.943Z,2.20
2023-05-18T10:56:07.845Z,2.30
2023-05-18T10:58:37.907Z,2.30
2023-05-18T11:01:10.159Z,1.90
2023-05-18T11:03:40.915Z,2.47
2023-05-18T11:06:10.883Z,2.40
2023-05-18T11:08:49.057Z,2.15
2023-05-18T11:11:19.331Z,2.30
2023-05-18T11:13:50.508Z,2.30
2023-05-18T11:16:19.201Z,2.10
2023-05-18T11:18:49.313Z,2.20
2023-05-18T11:21:32.304Z,1.98
2023-05-18T11:24:19.836Z,2.35
2023-05-18T11:26:49.393Z,2.50
2023-05-18T11:29:19.170Z,2.63
2023-05-18T11:31:48.115Z,2.38
2023-05-18T11:34:36.589Z,2.30
2023-05-18T11:37:10.022Z,2.28
2023-05-18T11:39:48.141Z,2.35
2023-05-18T11:42:21.014Z,2.70
2023-05-18T11:44:53.870Z,2.47
2023-05-18T11:47:21.901Z,2.30
2023-05-18T11:49:50.472Z,2.03
2023-05-18T11:52:19.989Z,2.20
2023-05-18T11:54:52.274Z,2.53
2023-05-18T11:57:21.197Z,2.60
2023-05-18T11:59:50.172Z,2.40
2023-05-18T12:02:22.795Z,2.30
2023-05-18T12:04:54.117Z,1.95
2023-05-18T12:07:23.501Z,2.15
2023-05-18T12:09:53.177Z,2.20
2023-05-18T12:12:23.328Z,2.20
2023-05-18T12:14:56.333Z,2.28
2023-05-18T12:17:24.586Z,2.20
2023-05-18T12:19:52.735Z,2.03
2023-05-18T12:22:21.319Z,2.13
2023-05-18T12:24:54.201Z,2.20
2023-05-18T12:27:26.408Z,1.98
2023-05-18T12:29:56.139Z,2.30
2023-05-18T12:32:24.193Z,2.10
2023-05-18T12:34:52.564Z,2.50
2023-05-18T12:37:23.978Z,2.10
2023-05-18T12:39:57.488Z,2.25
2023-05-18T12:42:25.412Z,2.30
2023-05-18T12:44:53.338Z,2.00
2023-05-18T12:47:21.295Z,2.22
2023-05-18T12:49:51.073Z,2.38
2023-05-18T12:52:19.016Z,2.40
2023-05-18T12:55:00.016Z,2.20
2023-05-18T12:57:30.899Z,2.17
2023-05-18T12:59:59.339Z,2.22
2023-05-18T13:02:33.017Z,2.60
2023-05-18T13:05:08.685Z,2.28
2023-05-18T13:07:37.938Z,2.03
2023-05-18T13:10:10.480Z,2.40
2023-05-18T13:12:45.148Z,2.33
2023-05-18T13:15:14.861Z,2.50
2023-05-18T13:18:00.563Z,2.25
2023-05-18T13:20:37.668Z,2.28
2023-05-18T13:23:07.871Z,2.50
2023-05-18T13:25:35.988Z,2.40
2023-05-18T13:28:06.043Z,2.42
2023-05-18T13:30:34.531Z,2.30
2023-05-18T13:33:02.464Z,2.17
2023-05-18T13:35:30.674Z,2.22
2023-05-18T13:37:58.776Z,2.30
2023-05-18T13:40:26.728Z,2.30
2023-05-18T13:42:54.676Z,2.30
2023-05-18T13:45:24.312Z,2.30
2023-05-18T13:47:53.637Z,2.22
2023-05-18T13:50:22.882Z,2.38
2023-05-18T13:52:51.042Z,2.33
2023-05-18T13:55:19.352Z,2.30
2023-05-18T13:57:47.505Z,2.22
2023-05-18T14:00:17.150Z,2.40
2023-05-18T14:02:47.128Z,2.63
2023-05-18T14:05:16.270Z,2.55
2023-05-18T14:07:44.885Z,2.72
2023-05-18T14:10:14.034Z,2.70
2023-05-18T14:12:43.250Z,2.88
2023-05-18T14:15:14.857Z,2.75
2023-05-18T14:17:43.535Z,2.50
2023-05-18T14:20:13.695Z,2.30
2023-05-18T14:22:41.670Z,2.25
2023-05-18T14:25:09.985Z,2.20
2023-05-18T14:27:38.071Z,2.33
2023-05-18T14:30:07.192Z,2.17
2023-05-18T14:32:35.167Z,2.38
2023-05-18T14:35:03.590Z,2.15
2023-05-18T14:37:33.797Z,2.15
2023-05-18T14:40:01.736Z,2.08
2023-05-18T14:42:29.787Z,2.00
2023-05-18T14:44:57.826Z,2.53
2023-05-18T14:47:25.934Z,2.50
2023-05-18T14:49:53.915Z,2.63
2023-05-18T14:52:21.782Z,2.45
2023-05-18T14:54:51.363Z,2.20
2023-05-18T14:57:19.291Z,2.28
2023-05-18T14:59:47.196Z,2.30
2023-05-18T15:02:15.254Z,2.25
2023-05-18T15:04:43.303Z,2.40
2023-05-18T15:07:11.578Z,2.50
2023-05-18T15:09:39.534Z,2.40
2023-05-18T15:12:09.769Z,2.30
2023-05-18T15:14:37.949Z,2.20
2023-05-18T15:17:07.272Z,2.35
2023-05-18T15:19:35.226Z,2.38
2023-05-18T15:22:03.117Z,2.40
2023-05-18T15:24:31.005Z,2.15
2023-05-18T15:26:59.008Z,2.20
2023-05-18T15:29:28.440Z,2.20
2023-05-18T15:31:56.380Z,2.50
2023-05-18T15:34:24.762Z,2.30
2023-05-18T15:36:53.377Z,2.13
2023-05-18T15:39:21.282Z,2.70
2023-05-18T15:41:49.508Z,2.60
2023-05-18T15:44:17.378Z,2.47
2023-05-18T15:46:46.615Z,2.60
2023-05-18T15:49:14.500Z,2.30
2023-05-18T15:51:42.527Z,2.40
2023-05-18T15:54:10.520Z,2.50
2023-05-18T15:56:38.469Z,2.50
2023-05-18T15:59:08.206Z,2.60
2023-05-18T16:01:36.278Z,2.30
2023-05-18T16:04:05.605Z,2.70
2023-05-18T16:06:36.227Z,2.42
2023-05-18T16:09:04.205Z,2.30
2023-05-18T16:11:32.162Z,2.70
2023-05-18T16:14:00.405Z,2.55
2023-05-18T16:16:28.867Z,2.40
2023-05-18T16:18:57.040Z,2.47
2023-05-18T16:21:26.546Z,2.25
2023-05-18T16:23:54.433Z,2.67
2023-05-18T16:26:22.338Z,2.50
2023-05-18T16:28:50.225Z,2.50
2023-05-18T16:31:18.138Z,1.98
2023-05-18T16:33:46.149Z,2.38
2023-05-18T16:36:15.050Z,2.20
2023-05-18T16:38:44.455Z,2.78
2023-05-18T16:41:14.698Z,2.30
2023-05-18T16:43:43.487Z,2.17
2023-05-18T16:46:11.559Z,2.28
2023-05-18T16:48:39.477Z,2.38
2023-05-18T16:51:07.687Z,2.53
2023-05-18T16:53:35.786Z,2.47
2023-05-18T16:56:05.522Z,2.50
2023-05-18T16:58:33.421Z,2.42
2023-05-18T17:01:01.726Z,2.20
2023-05-18T17:03:30.170Z,2.15
2023-05-18T17:05:58.173Z,2.45
2023-05-18T17:08:26.064Z,2.10
2023-05-18T17:10:54.001Z,2.50
2023-05-18T17:13:23.233Z,2.15
2023-05-18T17:15:51.244Z,2.05
2023-05-18T17:18:19.163Z,2.10
2023-05-18T17:20:47.034Z,2.40
2023-05-18T17:23:18.597Z,2.38
2023-05-18T17:25:48.357Z,2.30
2023-05-18T17:28:18.856Z,2.20
2023-05-18T17:30:48.145Z,2.50
2023-05-18T17:33:16.228Z,2.15
2023-05-18T17:35:44.231Z,2.53
2023-05-18T17:38:12.210Z,2.13
2023-05-18T17:40:40.116Z,2.47
2023-05-18T17:43:08.044Z,2.40
2023-05-18T17:45:36.000Z,2.20
2023-05-18T17:48:06.614Z,2.38
2023-05-18T17:50:37.537Z,2.20
2023-05-18T17:53:05.529Z,2.20
2023-05-18T17:55:33.494Z,2.13
2023-05-18T17:58:02.394Z,2.20
2023-05-18T18:00:30.359Z,2.30
2023-05-18T18:02:58.432Z,2.10
2023-05-18T18:05:27.786Z,2.50
2023-05-18T18:07:55.665Z,2.50
2023-05-18T18:10:23.585Z,2.47
2023-05-18T18:12:51.555Z,2.50
2023-05-18T18:15:20.023Z,2.17
2023-05-18T18:17:48.436Z,2.03
2023-05-18T18:20:16.370Z,2.35
2023-05-18T18:22:47.425Z,2.65
2023-05-18T18:25:15.409Z,2.28
2023-05-18T18:27:43.662Z,1.98
2023-05-18T18:30:12.525Z,2.20
2023-05-18T18:32:40.431Z,2.30
2023-05-18T18:35:09.033Z,2.03
2023-05-18T18:37:36.995Z,2.10
2023-05-18T18:40:07.937Z,2.42
2023-05-18T18:42:35.830Z,2.30
2023-05-18T18:45:03.769Z,2.22
2023-05-18T18:47:31.682Z,2.78
2023-05-18T18:49:59.538Z,2.13
2023-05-18T18:52:27.413Z,2.33
2023-05-18T18:54:55.276Z,2.25
2023-05-18T18:57:24.527Z,2.78
2023-05-18T18:59:52.786Z,2.55
2023-05-18T19:02:21.189Z,2.50
2023-05-18T19:04:49.357Z,2.63
2023-05-18T19:07:17.673Z,3.75
2023-05-18T19:09:45.748Z,2.80
2023-05-18T19:12:13.664Z,3.00
2023-05-18T19:14:42.897Z,2.67
2023-05-18T19:17:11.450Z,2.60
2023-05-18T19:19:40.028Z,2.45
2023-05-18T19:22:07.961Z,2.70
2023-05-18T19:24:36.153Z,2.58
2023-05-18T19:27:04.282Z,2.70
2023-05-18T19:29:32.324Z,2.67
2023-05-18T19:32:01.864Z,2.40
2023-05-18T19:34:29.811Z,2.67
2023-05-18T19:36:57.669Z,2.13
2023-05-18T19:39:25.621Z,3.13
2023-05-18T19:41:53.518Z,2.88
2023-05-18T19:44:21.726Z,2.67
2023-05-18T19:46:49.705Z,2.60
2023-05-18T19:49:18.998Z,2.85
2023-05-18T19:51:48.204Z,2.55
2023-05-18T19:54:16.463Z,2.67
2023-05-18T19:56:44.417Z,2.53
2023-05-18T19:59:12.464Z,2.35
2023-05-18T20:01:40.531Z,2.33
2023-05-18T20:04:08.547Z,2.47
2023-05-18T20:06:38.456Z,2.45
2023-05-18T20:09:06.428Z,2.60
2023-05-18T20:11:34.318Z,2.47
2023-05-18T20:14:02.961Z,2.33
2023-05-18T20:16:33.925Z,2.70
2023-05-18T20:19:02.715Z,2.40
2023-05-18T20:21:31.790Z,2.47
2023-05-18T20:24:01.028Z,2.35
2023-05-18T20:26:31.883Z,2.53
2023-05-18T20:29:00.041Z,2.20
2023-05-18T20:31:27.960Z,2.42
2023-05-18T20:33:57.753Z,2.30
2023-05-18T20:36:26.591Z,2.20
2023-05-18T20:38:54.606Z,2.40
2023-05-18T20:41:23.847Z,2.30
2023-05-18T20:43:51.729Z,2.05
2023-05-18T20:46:23.797Z,2.05
2023-05-18T20:48:54.871Z,2.22
2023-05-18T20:51:23.251Z,2.08
2023-05-18T20:53:51.473Z,1.90
2023-05-18T20:56:21.734Z,2.20
2023-05-18T20:58:51.105Z,2.33
2023-05-18T21:01:21.046Z,2.03
2023-05-18T21:03:49.499Z,2.00
2023-05-18T21:06:17.471Z,1.98
2023-05-18T21:08:45.689Z,2.25
2023-05-18T21:11:13.624Z,1.90
2023-05-18T21:13:41.737Z,1.70
2023-05-18T21:16:11.321Z,1.80
2023-05-18T21:18:39.308Z,1.63
2023-05-18T21:21:07.337Z,1.80
2023-05-18T21:23:35.380Z,1.83
2023-05-18T21:26:03.668Z,1.90
2023-05-18T21:28:31.549Z,1.80
2023-05-18T21:30:59.433Z,1.77
2023-05-18T21:33:28.666Z,1.80
2023-05-18T21:35:57.633Z,2.20
2023-05-18T21:38:25.546Z,1.90
2023-05-18T21:40:53.401Z,1.60
2023-05-18T21:43:21.313Z,2.10
2023-05-18T21:45:49.381Z,1.48
2023-05-18T21:48:17.291Z,1.92
2023-05-18T21:50:46.527Z,1.50
2023-05-18T21:53:14.570Z,1.70
2023-05-18T21:55:42.506Z,1.60
2023-05-18T21:58:10.445Z,1.75
